createdAt,value
2018-12-10T00:01:07.216Z,28.37
2018-12-10T00:03:38.639Z,28.10
2018-12-10T00:06:10.394Z,28.07
2018-12-10T00:08:41.087Z,27.47
2018-12-10T00:11:12.320Z,27.80
2018-12-10T00:13:43.491Z,26.97
2018-12-10T00:16:14.003Z,28.47
2018-12-10T00:18:45.139Z,28.17
2018-12-10T00:21:16.105Z,29.03
2018-12-10T00:23:46.766Z,29.83
2018-12-10T00:26:17.910Z,28.83
2018-12-10T00:28:49.505Z,28.53
2018-12-10T00:31:20.212Z,28.60
2018-12-10T00:33:51.019Z,30.33
2018-12-10T00:36:22.423Z,29.47
2018-12-10T00:38:53.469Z,28.17
2018-12-10T00:41:24.120Z,27.83
2018-12-10T00:43:55.216Z,25.50
2018-12-10T00:46:25.845Z,24.93
2018-12-10T00:48:56.581Z,25.93
2018-12-10T00:51:27.298Z,25.83
2018-12-10T00:53:58.112Z,26.10
2018-12-10T00:56:28.667Z,25.77
2018-12-10T00:58:59.320Z,24.43
2018-12-10T01:01:30.048Z,24.40
2018-12-10T01:04:00.604Z,23.67
2018-12-10T01:06:31.292Z,25.07
2018-12-10T01:09:02.545Z,24.17
2018-12-10T01:11:33.717Z,24.90
2018-12-10T01:14:04.626Z,24.73
2018-12-10T01:16:35.255Z,22.93
2018-12-10T01:19:07.530Z,22.73
2018-12-10T01:21:39.061Z,24.67
2018-12-10T01:24:09.806Z,24.10
2018-12-10T01:26:40.538Z,24.17
2018-12-10T01:29:11.418Z,23.53
2018-12-10T01:31:42.212Z,23.10
2018-12-10T01:34:12.994Z,23.87
2018-12-10T01:36:43.660Z,23.80
2018-12-10T01:39:14.278Z,24.13
2018-12-10T01:41:44.974Z,23.13
2018-12-10T01:44:15.245Z,23.87
2018-12-10T01:46:46.369Z,23.20
2018-12-10T01:49:17.058Z,22.83
2018-12-10T01:51:47.735Z,23.77
2018-12-10T01:54:18.786Z,22.53
2018-12-10T01:56:49.188Z,23.37
2018-12-10T01:59:20.354Z,23.50
2018-12-10T02:01:51.371Z,24.20
2018-12-10T02:04:22.564Z,23.83
2018-12-10T02:06:53.070Z,23.03
2018-12-10T02:09:23.719Z,22.30
2018-12-10T02:11:54.747Z,22.33
2018-12-10T02:14:25.605Z,22.17
2018-12-10T02:16:56.624Z,22.63
2018-12-10T02:19:27.418Z,22.77
2018-12-10T02:21:58.432Z,21.60
2018-12-10T02:24:29.897Z,23.03
2018-12-10T02:27:01.416Z,23.23
2018-12-10T02:29:32.564Z,23.93
2018-12-10T02:32:03.282Z,20.63
2018-12-10T02:34:33.335Z,21.67
2018-12-10T02:37:03.996Z,21.37
2018-12-10T02:39:34.936Z,19.30
2018-12-10T02:42:05.771Z,21.93
2018-12-10T02:44:37.227Z,23.63
2018-12-10T02:47:08.275Z,21.90
2018-12-10T02:49:38.412Z,20.67
2018-12-10T02:52:09.360Z,22.10
2018-12-10T02:54:40.312Z,21.70
2018-12-10T02:57:11.175Z,22.03
2018-12-10T02:59:41.838Z,20.70
2018-12-10T03:02:12.669Z,23.77
2018-12-10T03:04:42.761Z,24.37
2018-12-10T03:07:13.198Z,22.40
2018-12-10T03:09:43.991Z,22.10
2018-12-10T03:12:15.651Z,21.50
2018-12-10T03:14:47.421Z,22.40
2018-12-10T03:17:18.392Z,21.33
2018-12-10T03:19:49.485Z,21.50
2018-12-10T03:22:20.147Z,22.77
2018-12-10T03:24:51.182Z,21.93
2018-12-10T03:27:21.447Z,23.03
2018-12-10T03:29:52.190Z,24.73
2018-12-10T03:32:23.739Z,23.43
2018-12-10T03:34:54.988Z,23.37
2018-12-10T03:37:25.019Z,23.73
2018-12-10T03:39:55.743Z,24.73
2018-12-10T03:42:26.732Z,26.10
2018-12-10T03:44:57.513Z,26.80
2018-12-10T03:47:28.388Z,25.87
2018-12-10T03:49:59.075Z,27.87
2018-12-10T03:52:30.502Z,27.97
2018-12-10T03:55:01.508Z,28.67
2018-12-10T03:57:32.122Z,26.43
2018-12-10T04:00:02.475Z,29.03
2018-12-10T04:02:33.935Z,32.77
2018-12-10T04:05:04.831Z,31.67
2018-12-10T04:07:35.261Z,34.50
2018-12-10T04:10:06.175Z,35.70
2018-12-10T04:12:36.800Z,34.07
2018-12-10T04:15:07.371Z,37.40
2018-12-10T04:17:38.419Z,38.70
2018-12-10T04:20:09.506Z,34.63
2018-12-10T04:22:40.273Z,35.57
2018-12-10T04:25:10.894Z,35.70
2018-12-10T04:27:41.666Z,37.37
2018-12-10T04:30:12.473Z,38.10
2018-12-10T04:32:43.325Z,37.93
2018-12-10T04:35:14.355Z,40.00
2018-12-10T04:37:45.135Z,41.57
2018-12-10T04:40:15.860Z,39.77
2018-12-10T04:42:46.717Z,36.90
2018-12-10T04:45:17.378Z,39.27
2018-12-10T04:47:48.836Z,42.17
2018-12-10T04:50:20.678Z,45.93
2018-12-10T04:52:51.800Z,42.80
2018-12-10T04:55:22.969Z,40.97
2018-12-10T04:57:53.930Z,38.43
2018-12-10T05:00:25.358Z,38.30
2018-12-10T05:02:56.213Z,38.57
2018-12-10T05:05:26.797Z,37.73
2018-12-10T05:07:57.732Z,40.30
2018-12-10T05:10:29.269Z,43.37
2018-12-10T05:13:00.114Z,35.17
2018-12-10T05:15:30.407Z,38.10
2018-12-10T05:18:01.622Z,34.60
2018-12-10T05:20:32.706Z,36.27
2018-12-10T05:23:03.477Z,34.70
2018-12-10T05:25:34.194Z,34.63
2018-12-10T05:28:05.553Z,35.43
2018-12-10T05:30:36.138Z,35.17
2018-12-10T05:33:06.769Z,37.57
2018-12-10T05:35:38.028Z,39.27
2018-12-10T05:38:08.820Z,36.10
2018-12-10T05:40:39.420Z,34.93
2018-12-10T05:43:10.798Z,35.93
2018-12-10T05:45:42.066Z,37.27
2018-12-10T05:48:13.923Z,38.23
2018-12-10T05:50:45.309Z,34.47
2018-12-10T05:53:17.308Z,36.70
2018-12-10T05:55:49.061Z,37.70
2018-12-10T05:58:19.999Z,40.47
2018-12-10T06:00:51.176Z,37.97
2018-12-10T06:03:21.850Z,38.73
2018-12-10T06:05:52.894Z,37.20
2018-12-10T06:08:23.939Z,36.03
2018-12-10T06:10:55.079Z,37.70
2018-12-10T06:13:25.962Z,38.10
2018-12-10T06:15:57.639Z,39.03
2018-12-10T06:18:28.407Z,40.27
2018-12-10T06:20:59.861Z,38.10
2018-12-10T06:23:30.565Z,40.00
2018-12-10T06:26:01.526Z,39.63
2018-12-10T06:28:32.320Z,38.37
2018-12-10T06:31:02.518Z,38.70
2018-12-10T06:33:33.794Z,34.50
2018-12-10T06:36:04.639Z,35.00
2018-12-10T06:38:35.488Z,35.63
2018-12-10T06:41:06.257Z,35.57
2018-12-10T06:43:37.002Z,35.40
2018-12-10T06:46:07.841Z,35.33
2018-12-10T06:48:38.813Z,35.97
2018-12-10T06:51:09.612Z,37.03
2018-12-10T06:53:39.776Z,36.17
2018-12-10T06:56:11.176Z,37.97
2018-12-10T06:58:42.335Z,37.53
2018-12-10T07:01:12.972Z,36.80
2018-12-10T07:03:46.269Z,35.43
2018-12-10T07:06:17.075Z,38.93
2018-12-10T07:08:48.187Z,40.83
2018-12-10T07:11:19.567Z,43.13
2018-12-10T07:13:49.861Z,43.13
2018-12-10T07:16:20.698Z,47.53
2018-12-10T07:18:51.987Z,50.13
2018-12-10T07:21:22.290Z,50.17
2018-12-10T07:23:54.273Z,46.67
2018-12-10T07:26:26.318Z,46.87
2018-12-10T07:28:56.920Z,47.67
2018-12-10T07:31:27.611Z,47.53
2018-12-10T07:33:58.216Z,47.77
2018-12-10T07:36:29.076Z,46.60
2018-12-10T07:39:00.929Z,45.47
2018-12-10T07:41:30.874Z,46.20
2018-12-10T07:44:00.893Z,44.20
2018-12-10T07:46:31.900Z,44.63
2018-12-10T07:49:02.596Z,43.47
2018-12-10T07:51:33.327Z,48.80
2018-12-10T07:54:04.104Z,46.63
2018-12-10T07:56:35.041Z,49.90
2018-12-10T07:59:05.874Z,49.97
2018-12-10T08:01:37.140Z,51.13
2018-12-10T08:04:08.767Z,43.80
2018-12-10T08:06:39.459Z,41.70
2018-12-10T08:09:10.484Z,35.13
2018-12-10T08:11:40.340Z,38.60
2018-12-10T08:14:11.163Z,42.23
2018-12-10T08:16:41.973Z,45.37
2018-12-10T08:19:13.617Z,41.73
2018-12-10T08:21:44.460Z,41.73
2018-12-10T08:24:16.089Z,42.80
2018-12-10T08:26:47.007Z,44.20
2018-12-10T08:29:17.943Z,44.43
2018-12-10T08:31:48.854Z,46.97
2018-12-10T08:34:19.748Z,45.10
2018-12-10T08:36:50.543Z,50.63
2018-12-10T08:39:21.200Z,55.43
2018-12-10T08:41:52.053Z,50.13
2018-12-10T08:44:22.686Z,48.80
2018-12-10T08:46:53.352Z,44.07
2018-12-10T08:49:24.555Z,41.80
2018-12-10T08:51:55.175Z,44.27
2018-12-10T08:54:27.220Z,47.10
2018-12-10T08:56:58.807Z,48.10
2018-12-10T08:59:29.730Z,44.33
2018-12-10T09:02:00.648Z,46.33
2018-12-10T09:04:31.784Z,44.30
2018-12-10T09:07:02.784Z,42.13
2018-12-10T09:09:34.413Z,45.03
2018-12-10T09:12:06.405Z,45.87
2018-12-10T09:14:38.200Z,53.37
2018-12-10T09:17:08.854Z,59.93
2018-12-10T09:19:39.591Z,44.83
2018-12-10T09:22:10.379Z,44.43
2018-12-10T09:24:41.328Z,48.37
2018-12-10T09:27:12.213Z,45.37
2018-12-10T09:29:43.079Z,38.33
2018-12-10T09:32:13.986Z,51.63
2018-12-10T09:34:44.792Z,43.10
2018-12-10T09:37:15.942Z,45.33
2018-12-10T09:39:47.209Z,33.07
2018-12-10T09:42:18.150Z,42.37
2018-12-10T09:44:49.125Z,49.83
2018-12-10T09:47:20.022Z,47.70
2018-12-10T09:49:50.574Z,48.80
2018-12-10T09:52:21.432Z,43.00
2018-12-10T09:54:52.598Z,42.10
2018-12-10T09:57:24.801Z,31.13
2018-12-10T09:59:56.099Z,30.47
2018-12-10T10:02:27.037Z,32.43
2018-12-10T10:04:57.699Z,29.73
2018-12-10T10:07:28.614Z,27.23
2018-12-10T10:09:59.879Z,25.83
2018-12-10T10:12:30.437Z,25.03
2018-12-10T10:15:01.362Z,24.00
2018-12-10T10:17:32.297Z,28.57
2018-12-10T10:20:03.447Z,24.10
2018-12-10T10:22:34.208Z,28.97
2018-12-10T10:25:05.047Z,26.67
2018-12-10T10:27:35.776Z,28.33
2018-12-10T10:30:06.725Z,31.10
2018-12-10T10:32:37.445Z,29.20
2018-12-10T10:35:08.553Z,28.90
2018-12-10T10:37:39.247Z,25.30
2018-12-10T10:40:11.334Z,30.53
2018-12-10T10:42:42.383Z,23.07
2018-12-10T10:45:13.837Z,21.20
2018-12-10T10:47:45.326Z,16.87
2018-12-10T10:50:16.000Z,22.13
2018-12-10T10:52:47.063Z,21.00
2018-12-10T10:55:17.851Z,19.50
2018-12-10T10:57:48.592Z,21.00
2018-12-10T11:00:25.617Z,20.83
2018-12-10T11:03:02.104Z,17.77
2018-12-10T11:05:33.606Z,25.03
2018-12-10T11:08:04.930Z,15.23
2018-12-10T11:10:35.733Z,16.27
2018-12-10T11:13:06.425Z,18.07
2018-12-10T11:15:37.833Z,17.70
2018-12-10T11:18:08.457Z,16.93
2018-12-10T11:20:39.223Z,17.33
2018-12-10T11:23:10.355Z,15.27
2018-12-10T11:25:41.208Z,18.57
2018-12-10T11:28:11.126Z,17.37
2018-12-10T11:30:41.618Z,21.97
2018-12-10T11:33:12.144Z,15.53
2018-12-10T11:35:42.805Z,18.77
2018-12-10T11:38:13.744Z,17.30
2018-12-10T11:40:44.429Z,18.17
2018-12-10T11:43:15.380Z,17.00
2018-12-10T11:45:46.130Z,15.60
2018-12-10T11:48:17.138Z,14.37
2018-12-10T11:50:48.158Z,17.67
2018-12-10T11:53:18.282Z,13.07
2018-12-10T11:55:48.945Z,13.23
2018-12-10T11:58:19.608Z,11.77
2018-12-10T12:00:50.549Z,11.80
2018-12-10T12:03:21.241Z,11.77
2018-12-10T12:05:51.816Z,12.07
2018-12-10T12:08:22.460Z,14.40
2018-12-10T12:10:53.390Z,11.80
2018-12-10T12:13:24.796Z,11.33
2018-12-10T12:15:55.521Z,9.53
2018-12-10T12:18:26.332Z,10.03
2018-12-10T12:20:57.337Z,10.57
2018-12-10T12:23:28.307Z,11.30
2018-12-10T12:25:59.215Z,12.63
2018-12-10T12:28:30.192Z,10.63
2018-12-10T12:31:01.144Z,9.33
2018-12-10T12:33:32.719Z,10.27
2018-12-10T12:36:03.412Z,10.80
2018-12-10T12:38:34.673Z,10.53
2018-12-10T12:41:04.522Z,9.53
2018-12-10T12:43:35.354Z,7.07
2018-12-10T12:46:06.149Z,6.23
2018-12-10T12:48:37.177Z,7.40
2018-12-10T12:51:07.752Z,7.47
2018-12-10T12:53:38.518Z,6.17
2018-12-10T12:56:09.303Z,8.80
2018-12-10T12:58:39.966Z,6.03
2018-12-10T13:01:11.344Z,5.83
2018-12-10T13:03:42.557Z,6.33
2018-12-10T13:06:13.035Z,5.40
2018-12-10T13:08:44.464Z,7.47
2018-12-10T13:11:15.206Z,8.40
2018-12-10T13:13:46.091Z,6.27
2018-12-10T13:16:17.139Z,6.43
2018-12-10T13:18:47.217Z,8.03
2018-12-10T13:21:18.134Z,9.33
2018-12-10T13:23:49.466Z,7.67
2018-12-10T13:26:20.631Z,7.80
2018-12-10T13:28:51.169Z,5.77
2018-12-10T13:31:22.186Z,9.43
2018-12-10T13:33:52.897Z,7.97
2018-12-10T13:36:23.642Z,5.97
2018-12-10T13:38:54.999Z,6.60
2018-12-10T13:41:26.695Z,6.17
2018-12-10T13:43:56.998Z,6.20
2018-12-10T13:46:27.724Z,7.70
2018-12-10T13:48:58.321Z,5.93
2018-12-10T13:51:28.998Z,7.17
2018-12-10T13:53:59.708Z,6.97
2018-12-10T13:56:30.330Z,6.23
2018-12-10T13:59:01.507Z,6.33
2018-12-10T14:01:31.895Z,6.30
2018-12-10T14:04:05.315Z,6.37
2018-12-10T14:06:37.009Z,5.97
2018-12-10T14:09:09.005Z,6.30
2018-12-10T14:11:39.825Z,7.40
2018-12-10T14:14:09.742Z,6.73
2018-12-10T14:16:40.313Z,6.97
2018-12-10T14:19:11.459Z,6.73
2018-12-10T14:21:42.508Z,5.90
2018-12-10T14:24:14.107Z,5.90
2018-12-10T14:26:45.582Z,6.47
2018-12-10T14:29:16.942Z,8.87
2018-12-10T14:31:48.586Z,8.70
2018-12-10T14:34:25.148Z,7.63
2018-12-10T14:36:56.484Z,6.80
2018-12-10T14:39:27.523Z,8.27
2018-12-10T14:41:58.289Z,7.43
2018-12-10T14:44:29.606Z,8.33
2018-12-10T14:47:00.797Z,9.63
2018-12-10T14:49:32.165Z,7.57
2018-12-10T14:52:04.309Z,7.80
2018-12-10T14:54:35.316Z,8.27
2018-12-10T14:57:06.422Z,8.20
2018-12-10T14:59:38.872Z,7.93
2018-12-10T15:02:09.268Z,10.40
2018-12-10T15:04:40.537Z,7.90
2018-12-10T15:07:11.582Z,11.07
2018-12-10T15:09:42.858Z,9.07
2018-12-10T15:12:14.050Z,7.23
2018-12-10T15:14:45.027Z,9.47
2018-12-10T15:17:17.347Z,10.53
2018-12-10T15:19:48.529Z,10.20
2018-12-10T15:22:19.157Z,10.73
2018-12-10T15:24:50.366Z,11.87
2018-12-10T15:27:21.531Z,11.07
2018-12-10T15:29:53.175Z,10.87
2018-12-10T15:32:24.585Z,12.60
2018-12-10T15:34:57.375Z,10.20
2018-12-10T15:37:28.578Z,11.53
2018-12-10T15:39:59.692Z,13.47
2018-12-10T15:42:30.750Z,12.40
2018-12-10T15:45:02.236Z,13.23
2018-12-10T15:47:33.116Z,12.00
2018-12-10T15:50:04.572Z,10.10
2018-12-10T15:52:35.341Z,10.83
2018-12-10T15:55:06.573Z,9.70
2018-12-10T15:57:37.863Z,10.93
2018-12-10T16:00:09.738Z,10.80
2018-12-10T16:02:40.967Z,12.03
2018-12-10T16:05:12.243Z,12.93
2018-12-10T16:07:43.163Z,12.43
2018-12-10T16:10:14.113Z,12.60
2018-12-10T16:12:45.245Z,14.40
2018-12-10T16:15:16.167Z,15.77
2018-12-10T16:17:47.225Z,14.30
2018-12-10T16:21:21.447Z,11.77
2018-12-10T16:23:52.534Z,10.17
2018-12-10T16:26:23.692Z,11.03
2018-12-10T16:28:54.962Z,9.70
2018-12-10T16:31:26.427Z,6.03
2018-12-10T16:33:57.584Z,9.40
2018-12-10T16:36:28.662Z,8.23
2018-12-10T16:38:59.670Z,8.50
2018-12-10T16:41:30.754Z,7.93
2018-12-10T16:44:01.833Z,8.10
2018-12-10T16:46:33.657Z,8.23
2018-12-10T16:49:04.882Z,7.57
2018-12-10T16:51:36.157Z,6.93
2018-12-10T16:54:07.478Z,5.37
2018-12-10T16:56:38.946Z,5.43
2018-12-10T16:59:09.484Z,5.53
2018-12-10T17:01:41.111Z,8.63
2018-12-10T17:04:12.220Z,8.30
2018-12-10T17:06:43.698Z,6.83
2018-12-10T17:09:14.908Z,6.60
2018-12-10T17:11:45.817Z,7.60
2018-12-10T17:14:17.094Z,6.60
2018-12-10T17:16:48.851Z,5.90
2018-12-10T17:19:20.439Z,7.07
2018-12-10T17:21:52.206Z,5.00
2018-12-10T17:24:22.872Z,4.83
2018-12-10T17:26:52.893Z,5.60
2018-12-10T17:29:24.746Z,4.57
2018-12-10T17:31:55.305Z,6.27
2018-12-10T17:34:26.637Z,6.03
2018-12-10T17:36:58.045Z,4.37
2018-12-10T17:39:29.784Z,4.57
2018-12-10T17:42:00.679Z,3.30
2018-12-10T17:44:31.840Z,5.47
2018-12-10T17:47:08.623Z,3.87
2018-12-10T17:49:36.615Z,4.27
2018-12-10T17:52:07.871Z,5.33
2018-12-10T17:54:38.988Z,4.60
2018-12-10T17:57:11.045Z,4.53
2018-12-10T17:59:42.296Z,5.40
2018-12-10T18:02:13.288Z,6.03
2018-12-10T18:04:44.962Z,5.53
2018-12-10T18:07:16.044Z,4.57
2018-12-10T18:09:47.633Z,5.30
2018-12-10T18:12:18.612Z,5.20
2018-12-10T18:14:49.553Z,4.73
2018-12-10T18:17:21.325Z,5.37
2018-12-10T18:19:52.407Z,5.50
2018-12-10T18:22:23.595Z,5.30
2018-12-10T18:24:54.860Z,5.07
2018-12-10T18:27:26.704Z,4.17
2018-12-10T18:29:58.235Z,3.73
2018-12-10T18:32:29.661Z,4.00
2018-12-10T18:35:00.560Z,5.00
2018-12-10T18:37:31.816Z,4.33
2018-12-10T18:40:03.086Z,4.33
2018-12-10T18:42:35.536Z,5.60
2018-12-10T18:45:08.421Z,5.77
2018-12-10T18:47:39.576Z,4.60
2018-12-10T18:50:11.076Z,4.50
2018-12-10T18:52:43.572Z,4.60
2018-12-10T18:55:14.883Z,4.87
2018-12-10T18:57:46.277Z,4.63
2018-12-10T19:00:18.147Z,5.83
2018-12-10T19:02:49.287Z,6.90
2018-12-10T19:05:22.534Z,6.20
2018-12-10T19:07:53.726Z,6.07
2018-12-10T19:10:24.815Z,6.73
2018-12-10T19:12:55.802Z,4.93
2018-12-10T19:15:27.069Z,5.40
2018-12-10T19:17:57.934Z,5.73
2018-12-10T19:20:28.692Z,5.10
2018-12-10T19:22:59.440Z,4.23
2018-12-10T19:25:30.024Z,4.30
2018-12-10T19:28:01.059Z,3.40
2018-12-10T19:30:32.127Z,4.93
2018-12-10T19:33:03.220Z,4.67
2018-12-10T19:35:34.371Z,4.90
2018-12-10T19:38:05.468Z,5.27
2018-12-10T19:40:36.661Z,5.33
2018-12-10T19:43:07.850Z,5.30
2018-12-10T19:45:38.854Z,5.67
2018-12-10T19:48:09.777Z,4.87
2018-12-10T19:50:42.022Z,5.10
2018-12-10T19:53:12.679Z,5.67
2018-12-10T19:55:44.417Z,4.77
2018-12-10T19:58:15.626Z,4.50
2018-12-10T20:00:46.780Z,4.90
2018-12-10T20:03:17.808Z,4.60
2018-12-10T20:05:54.325Z,5.90
2018-12-10T20:08:25.102Z,5.27
2018-12-10T20:10:56.479Z,6.07
2018-12-10T20:13:28.100Z,5.90
2018-12-10T20:15:59.851Z,6.23
2018-12-10T20:18:31.095Z,5.60
2018-12-10T20:21:02.034Z,6.17
2018-12-10T20:23:33.192Z,5.70
2018-12-10T20:26:04.402Z,6.37
2018-12-10T20:28:35.861Z,7.30
2018-12-10T20:31:07.236Z,6.67
2018-12-10T20:33:38.637Z,7.17
2018-12-10T20:36:09.771Z,4.53
2018-12-10T20:38:40.573Z,6.90
2018-12-10T20:41:11.272Z,5.27
2018-12-10T20:43:43.208Z,6.37
2018-12-10T20:46:14.411Z,5.73
2018-12-10T20:48:45.739Z,5.33
2018-12-10T20:51:16.736Z,6.73
2018-12-10T20:53:48.104Z,7.40
2018-12-10T20:56:19.167Z,7.23
2018-12-10T20:58:50.289Z,6.43
2018-12-10T21:01:22.547Z,6.03
2018-12-10T21:03:54.602Z,6.47
2018-12-10T21:06:31.398Z,7.80
2018-12-10T21:09:02.489Z,5.83
2018-12-10T21:11:34.646Z,7.10
2018-12-10T21:14:05.865Z,9.13
2018-12-10T21:16:37.593Z,7.37
2018-12-10T21:19:08.704Z,7.37
2018-12-10T21:21:40.048Z,6.33
2018-12-10T21:24:11.648Z,8.23
2018-12-10T21:26:42.022Z,8.63
2018-12-10T21:29:12.791Z,7.47
2018-12-10T21:31:43.688Z,6.63
2018-12-10T21:34:15.183Z,8.80
2018-12-10T21:36:46.416Z,7.47
2018-12-10T21:39:17.573Z,7.97
2018-12-10T21:41:48.499Z,7.50
2018-12-10T21:44:19.791Z,8.60
2018-12-10T21:46:51.152Z,7.80
2018-12-10T21:49:22.956Z,6.77
2018-12-10T21:51:54.198Z,7.43
2018-12-10T21:54:25.316Z,8.10
2018-12-10T21:56:56.360Z,6.57
2018-12-10T21:59:27.705Z,8.27
2018-12-10T22:01:58.997Z,6.43
2018-12-10T22:04:30.081Z,7.50
2018-12-10T22:07:01.362Z,7.63
2018-12-10T22:09:32.552Z,6.73
2018-12-10T22:12:03.866Z,6.53
2018-12-10T22:14:35.178Z,6.60
2018-12-10T22:17:06.404Z,5.73
2018-12-10T22:19:37.512Z,7.40
2018-12-10T22:22:08.598Z,7.13
2018-12-10T22:24:39.419Z,7.70
2018-12-10T22:27:10.384Z,4.67
2018-12-10T22:29:41.199Z,5.37
2018-12-10T22:32:11.965Z,8.57
2018-12-10T22:34:43.011Z,6.87
2018-12-10T22:37:13.784Z,6.73
2018-12-10T22:39:44.751Z,5.83
2018-12-10T22:42:15.652Z,4.80
2018-12-10T22:44:46.274Z,5.83
2018-12-10T22:47:17.179Z,6.33
2018-12-10T22:49:47.966Z,7.40
2018-12-10T22:52:18.627Z,6.93
2018-12-10T22:54:49.442Z,5.70
2018-12-10T22:57:20.079Z,6.43
2018-12-10T22:59:50.898Z,5.43
2018-12-10T23:02:21.858Z,4.63
2018-12-10T23:04:53.392Z,5.47
2018-12-10T23:07:24.124Z,4.63
2018-12-10T23:09:54.690Z,5.83
2018-12-10T23:12:25.185Z,4.70
2018-12-10T23:14:55.811Z,3.87
2018-12-10T23:17:26.582Z,5.40
2018-12-10T23:19:57.328Z,2.97
2018-12-10T23:22:28.137Z,3.97
2018-12-10T23:24:58.792Z,5.10
2018-12-10T23:27:29.585Z,4.27
2018-12-10T23:30:01.112Z,4.20
2018-12-10T23:32:32.707Z,5.70
2018-12-10T23:35:03.878Z,5.07
2018-12-10T23:37:34.523Z,3.80
2018-12-10T23:40:05.276Z,3.17
2018-12-10T23:42:36.054Z,3.80
2018-12-10T23:45:07.082Z,3.67
2018-12-10T23:47:37.972Z,4.47
2018-12-10T23:50:08.353Z,4.90
2018-12-10T23:52:39.215Z,4.40
2018-12-10T23:55:09.997Z,3.70
2018-12-10T23:57:41.144Z,4.03
